Time;durP1;ratioP1;P1;durP2;ratioP2;P2;SDS_P1;SDS_P2;PMS_P1;PMS_P2;Temp;Humidity;BMP_temperature;BMP_pressure;BME280_temperature;BME280_humidity;BME280_pressure;Samples;Min_cycle;Max_cycle;Signal;HPM_P1;HPM_P2
2023/06/26 00:00:25;;;;;;;2.20;1.88;;;17.30;99.90;;;;;;4127998;28;20026;-61
2023/06/26 00:02:26;;;;;;;2.45;1.70;;;17.30;99.90;;;;;;4127657;28;20069;-61
2023/06/26 00:04:28;;;;;;;2.20;1.98;;;17.30;99.90;;;;;;4127185;28;20113;-61
2023/06/26 00:06:29;;;;;;;7.63;2.30;;;17.30;99.90;;;;;;4127237;28;20042;-62
2023/06/26 00:08:30;;;;;;;3.80;1.80;;;17.20;99.90;;;;;;4128123;28;20521;-60
2023/06/26 00:10:31;;;;;;;4.65;2.45;;;17.20;99.90;;;;;;4127181;28;20081;-61
2023/06/26 00:12:32;;;;;;;3.10;2.00;;;17.20;99.90;;;;;;4127568;28;20043;-60
2023/06/26 00:14:34;;;;;;;5.90;2.53;;;17.20;99.90;;;;;;4127170;28;20034;-61
2023/06/26 00:16:36;;;;;;;5.88;2.42;;;17.20;99.90;;;;;;4128101;28;20255;-61
2023/06/26 00:18:37;;;;;;;2.92;2.13;;;17.10;99.90;;;;;;4127874;28;20089;-61
2023/06/26 00:20:38;;;;;;;7.95;2.25;;;17.10;99.90;;;;;;4131541;28;20088;-60
2023/06/26 00:22:40;;;;;;;4.90;2.40;;;17.10;99.90;;;;;;4130357;28;20490;-60
2023/06/26 00:24:42;;;;;;;4.70;1.73;;;17.10;99.90;;;;;;4131542;28;20085;-61
2023/06/26 00:26:46;;;;;;;3.72;2.60;;;17.00;99.90;;;;;;4129783;28;20437;-60
2023/06/26 00:28:47;;;;;;;4.18;1.83;;;17.00;99.90;;;;;;4130977;28;20541;-61
2023/06/26 00:30:48;;;;;;;5.25;2.17;;;16.90;99.90;;;;;;4130881;28;20104;-62
2023/06/26 00:32:50;;;;;;;5.55;2.25;;;16.90;99.90;;;;;;4130067;28;20050;-66
2023/06/26 00:34:53;;;;;;;3.47;1.95;;;16.80;99.90;;;;;;4130739;28;20038;-61
2023/06/26 00:36:54;;;;;;;2.97;1.80;;;16.80;99.90;;;;;;4130835;28;20093;-62
2023/06/26 00:38:55;;;;;;;4.07;2.33;;;16.80;99.90;;;;;;4131307;28;20042;-62
2023/06/26 00:40:56;;;;;;;7.18;2.17;;;16.80;99.90;;;;;;4129688;28;20388;-61
2023/06/26 00:42:57;;;;;;;2.80;2.05;;;16.80;99.90;;;;;;4130351;28;20479;-61
2023/06/26 00:44:58;;;;;;;5.53;2.13;;;16.80;99.90;;;;;;4130083;28;20034;-61
2023/06/26 00:47:00;;;;;;;3.72;2.10;;;16.80;99.90;;;;;;4131340;28;20644;-61
2023/06/26 00:49:03;;;;;;;4.30;2.05;;;16.80;99.90;;;;;;4130228;28;20030;-62
2023/06/26 00:51:05;;;;;;;5.47;1.83;;;16.80;99.90;;;;;;4131326;28;20081;-60
2023/06/26 00:53:06;;;;;;;4.50;1.90;;;16.70;99.90;;;;;;4129787;28;20043;-61
2023/06/26 00:55:08;;;;;;;3.15;1.95;;;16.70;99.90;;;;;;4131468;28;20035;-61
2023/06/26 00:57:09;;;;;;;5.90;2.13;;;16.70;99.90;;;;;;4129990;28;20490;-61
2023/06/26 00:59:11;;;;;;;5.70;2.20;;;16.60;99.90;;;;;;4130518;28;20038;-60
2023/06/26 01:01:21;;;;;;;6.60;2.10;;;16.60;99.90;;;;;;4130774;28;20124;-61
2023/06/26 01:03:23;;;;;;;;;;;16.60;99.90;;;;;;4130969;28;20414;-61
2023/06/26 01:05:24;;;;;;;9.13;2.88;;;16.50;99.90;;;;;;4130442;28;19960;-61
2023/06/26 01:07:26;;;;;;;3.22;2.17;;;16.50;99.90;;;;;;4130361;28;20031;-61
2023/06/26 01:09:27;;;;;;;8.38;2.28;;;16.50;99.90;;;;;;4130349;28;20119;-62
2023/06/26 01:11:28;;;;;;;7.18;2.03;;;16.50;99.90;;;;;;4129828;28;20030;-60
2023/06/26 01:13:30;;;;;;;3.03;2.30;;;16.50;99.90;;;;;;4130592;28;20399;-60
2023/06/26 01:15:33;;;;;;;3.85;2.70;;;16.50;99.90;;;;;;4130031;28;20046;-60
2023/06/26 01:17:35;;;;;;;4.32;2.50;;;16.50;99.90;;;;;;4130976;28;20034;-60
2023/06/26 01:19:36;;;;;;;4.53;2.40;;;16.50;99.90;;;;;;4129384;28;20172;-63
2023/06/26 01:21:42;;;;;;;5.82;2.30;;;16.50;99.90;;;;;;4130571;28;20077;-60
2023/06/26 01:23:49;;;;;;;5.55;2.38;;;16.50;99.90;;;;;;4129449;28;20077;-61
2023/06/26 01:26:14;;;;;;;6.28;2.40;;;16.50;99.90;;;;;;4130797;28;20077;-60
2023/06/26 01:28:17;;;;;;;4.85;2.40;;;16.50;99.90;;;;;;4128661;28;20482;-60
2023/06/26 01:30:20;;;;;;;2.83;2.50;;;16.40;99.90;;;;;;4129941;28;20100;-61
2023/06/26 01:32:22;;;;;;;7.68;2.28;;;16.40;99.90;;;;;;4129647;28;20785;-60
2023/06/26 01:34:24;;;;;;;6.95;3.28;;;16.40;99.90;;;;;;4130304;28;20471;-60
2023/06/26 01:36:26;;;;;;;3.33;2.42;;;16.30;99.90;;;;;;4129766;28;20384;-61
2023/06/26 01:38:27;;;;;;;5.90;2.70;;;16.30;99.90;;;;;;4130744;28;20054;-61
2023/06/26 01:40:28;;;;;;;8.10;2.50;;;16.30;99.90;;;;;;4129411;28;20034;-61
2023/06/26 01:42:29;;;;;;;8.02;2.30;;;16.30;99.90;;;;;;4130592;28;20034;-61
2023/06/26 01:44:36;;;;;;;3.97;2.40;;;16.20;99.90;;;;;;4129018;28;20081;-60
2023/06/26 01:47:02;;;;;;;5.30;2.60;;;16.20;99.90;;;;;;4129653;28;20065;-61
2023/06/26 01:49:24;;;;;;;5.70;1.90;;;16.20;99.90;;;;;;4129420;28;20022;-66
2023/06/26 01:51:32;;;;;;;7.90;2.30;;;16.20;99.90;;;;;;4130115;28;20094;-59
2023/06/26 01:53:41;;;;;;;9.77;2.78;;;16.10;99.90;;;;;;4129404;28;20073;-66
2023/06/26 01:55:50;;;;;;;6.90;2.10;;;16.10;99.90;;;;;;4130483;28;20490;-60
2023/06/26 01:57:55;;;;;;;4.15;2.65;;;16.10;99.90;;;;;;4129205;28;20077;-62
2023/06/26 01:59:58;;;;;;;4.25;2.67;;;16.10;99.90;;;;;;4130371;28;20026;-65
2023/06/26 02:02:01;;;;;;;4.40;2.55;;;16.10;99.90;;;;;;4129545;28;20097;-64
2023/06/26 02:04:03;;;;;;;2.50;2.15;;;16.10;99.90;;;;;;4129372;28;20030;-60
2023/06/26 02:06:04;;;;;;;6.47;2.83;;;16.10;99.90;;;;;;4129438;28;20466;-64
2023/06/26 02:08:05;;;;;;;8.38;3.22;;;16.10;99.90;;;;;;4129747;28;20092;-60
2023/06/26 02:10:07;;;;;;;4.88;2.63;;;16.00;99.90;;;;;;4129584;28;20050;-61
2023/06/26 02:12:08;;;;;;;5.35;2.05;;;16.00;99.90;;;;;;4128715;28;20046;-65
2023/06/26 02:14:10;;;;;;;6.72;2.42;;;16.00;99.90;;;;;;4129813;28;20031;-61
2023/06/26 02:16:12;;;;;;;2.85;2.50;;;16.00;99.90;;;;;;4129078;28;20092;-61
2023/06/26 02:18:13;;;;;;;3.65;2.35;;;16.00;99.90;;;;;;4129985;28;20116;-61
2023/06/26 02:20:15;;;;;;;9.88;2.58;;;16.00;99.90;;;;;;4128891;28;20077;-60
2023/06/26 02:22:16;;;;;;;4.85;2.85;;;16.00;99.90;;;;;;4130178;28;20379;-64
2023/06/26 02:24:18;;;;;;;4.05;3.15;;;16.00;99.90;;;;;;4128847;28;20506;-61
2023/06/26 02:26:19;;;;;;;7.95;2.95;;;16.00;99.90;;;;;;4129617;28;20038;-62
2023/06/26 02:28:20;;;;;;;4.63;3.45;;;16.10;99.90;;;;;;4128403;28;20426;-62
2023/06/26 02:30:21;;;;;;;5.18;2.65;;;16.10;99.90;;;;;;4130273;28;20104;-62
2023/06/26 02:32:22;;;;;;;9.05;3.13;;;16.10;99.90;;;;;;4128594;28;20050;-66
2023/06/26 02:34:23;;;;;;;5.30;2.70;;;16.10;99.90;;;;;;4129538;28;20038;-61
2023/06/26 02:36:24;;;;;;;5.10;2.75;;;16.10;99.90;;;;;;4128658;28;20063;-61
2023/06/26 02:38:26;;;;;;;9.27;3.33;;;16.10;99.90;;;;;;4129515;28;20030;-65
2023/06/26 02:40:27;;;;;;;4.32;2.85;;;16.10;99.90;;;;;;4129114;28;20026;-60
2023/06/26 02:42:28;;;;;;;6.88;3.30;;;16.10;99.90;;;;;;4128568;28;20034;-62
2023/06/26 02:44:29;;;;;;;11.55;2.88;;;16.10;99.90;;;;;;4129123;28;20080;-62
2023/06/26 02:46:30;;;;;;;6.15;2.67;;;16.20;99.90;;;;;;4128337;28;20356;-63
2023/06/26 02:48:31;;;;;;;5.78;3.17;;;16.30;99.90;;;;;;4126036;28;20046;-63
2023/06/26 02:50:33;;;;;;;6.38;2.92;;;16.40;99.90;;;;;;4127710;28;20050;-68
2023/06/26 02:52:34;;;;;;;5.90;2.83;;;16.60;99.90;;;;;;4129455;28;20486;-61
2023/06/26 02:54:35;;;;;;;4.20;3.20;;;16.70;99.90;;;;;;4128152;28;20088;-60
2023/06/26 02:56:36;;;;;;;7.22;2.63;;;16.90;99.90;;;;;;4129567;28;20030;-61
2023/06/26 02:58:37;;;;;;;7.78;2.83;;;17.00;99.90;;;;;;4128264;28;20517;-61
2023/06/26 03:00:41;;;;;;;5.40;2.90;;;17.20;99.90;;;;;;4129207;28;20026;-62
2023/06/26 03:02:42;;;;;;;8.07;3.38;;;17.40;99.90;;;;;;4126885;28;20128;-61
2023/06/26 03:04:43;;;;;;;5.25;2.97;;;17.70;99.90;;;;;;4128459;28;20470;-61
2023/06/26 03:06:44;;;;;;;8.23;2.90;;;18.00;99.90;;;;;;4127501;28;20042;-62
2023/06/26 03:08:45;;;;;;;4.50;2.70;;;18.20;99.90;;;;;;4128881;28;20081;-63
2023/06/26 03:10:47;;;;;;;8.07;2.72;;;18.40;99.90;;;;;;4128183;28;20089;-61
2023/06/26 03:12:48;;;;;;;3.67;2.72;;;18.60;99.90;;;;;;4128494;28;20026;-62
2023/06/26 03:14:49;;;;;;;6.15;2.45;;;18.80;99.90;;;;;;4128388;28;20290;-61
2023/06/26 03:16:52;;;;;;;6.97;3.55;;;18.90;99.90;;;;;;4128027;28;20030;-61
2023/06/26 03:18:53;;;;;;;6.63;2.78;;;19.20;99.90;;;;;;4128784;28;20026;-60
2023/06/26 03:20:57;;;;;;;5.88;2.35;;;19.40;99.90;;;;;;4127995;28;20173;-61
2023/06/26 03:22:58;;;;;;;3.65;2.58;;;19.80;99.90;;;;;;4129050;28;20053;-61
2023/06/26 03:24:59;;;;;;;6.13;2.58;;;20.10;99.90;;;;;;4127781;28;20034;-61
2023/06/26 03:27:01;;;;;;;8.32;2.30;;;20.50;99.90;;;;;;4128556;28;20514;-65
2023/06/26 03:29:02;;;;;;;7.65;2.97;;;20.80;99.90;;;;;;4127868;28;20096;-68
2023/06/26 03:31:03;;;;;;;4.82;2.55;;;21.10;99.90;;;;;;4129433;28;20034;-64
2023/06/26 03:33:05;;;;;;;4.72;2.67;;;21.40;99.90;;;;;;4127679;28;20142;-64
2023/06/26 03:35:06;;;;;;;5.00;2.50;;;21.60;99.90;;;;;;4128724;28;20034;-61
2023/06/26 03:37:07;;;;;;;7.93;2.75;;;21.80;99.90;;;;;;4127536;28;20045;-61
2023/06/26 03:39:08;;;;;;;6.30;2.95;;;21.90;99.90;;;;;;4127916;28;20101;-61
2023/06/26 03:41:09;;;;;;;4.28;3.25;;;22.00;99.90;;;;;;4127155;28;20065;-63
2023/06/26 03:43:11;;;;;;;3.83;2.22;;;22.10;99.90;;;;;;4127230;28;20089;-60
2023/06/26 03:45:12;;;;;;;4.80;1.90;;;22.20;99.90;;;;;;4128308;28;20456;-61
2023/06/26 03:47:15;;;;;;;3.97;1.88;;;22.20;99.90;;;;;;4127561;28;20050;-61
2023/06/26 03:49:16;;;;;;;3.35;2.38;;;22.50;99.90;;;;;;4127430;28;20077;-60
2023/06/26 03:51:17;;;;;;;6.38;2.90;;;22.50;99.90;;;;;;4127217;28;20026;-60
2023/06/26 03:53:18;;;;;;;5.95;2.03;;;22.80;99.90;;;;;;4127682;28;20077;-60
2023/06/26 03:55:20;;;;;;;2.97;2.30;;;22.90;99.90;;;;;;4127430;28;20057;-61
2023/06/26 03:57:21;;;;;;;4.22;2.47;;;23.40;99.90;;;;;;4128216;28;20038;-60
2023/06/26 03:59:22;;;;;;;6.85;2.45;;;23.70;99.90;;;;;;4127242;28;20046;-60
2023/06/26 04:01:24;;;;;;;7.60;2.88;;;24.00;99.90;;;;;;4127867;28;20426;-59
2023/06/26 04:03:25;;;;;;;3.65;2.20;;;24.30;99.90;;;;;;4126421;28;20475;-60
2023/06/26 04:05:26;;;;;;;5.93;2.22;;;24.30;99.90;;;;;;4128641;28;20035;-61
2023/06/26 04:07:27;;;;;;;7.05;2.10;;;24.30;99.90;;;;;;4126212;28;20067;-60
2023/06/26 04:09:28;;;;;;;7.57;2.38;;;24.20;99.90;;;;;;4138048;28;20038;-60
2023/06/26 04:11:29;;;;;;;5.65;1.67;;;24.20;99.90;;;;;;4144053;28;20034;-60
2023/06/26 04:13:30;;;;;;;4.50;1.60;;;24.60;99.90;;;;;;4143484;28;20124;-62
2023/06/26 04:15:32;;;;;;;6.22;2.10;;;24.60;99.90;;;;;;4143696;28;20060;-61
2023/06/26 04:17:33;;;;;;;5.50;2.03;;;24.60;99.90;;;;;;4140272;28;20050;-61
2023/06/26 04:19:35;;;;;;;7.53;1.90;;;25.00;99.90;;;;;;4125874;28;20109;-62
2023/06/26 04:21:36;;;;;;;4.38;1.90;;;25.20;99.90;;;;;;4139785;28;20046;-61
2023/06/26 04:23:39;;;;;;;3.63;2.00;;;25.60;99.90;;;;;;4144164;28;20499;-63
2023/06/26 04:25:40;;;;;;;2.08;1.83;;;25.60;99.90;;;;;;4130235;28;20462;-62
2023/06/26 04:27:42;;;;;;;3.22;1.70;;;25.40;99.90;;;;;;4128698;28;20482;-61
2023/06/26 04:29:43;;;;;;;2.03;1.63;;;25.70;99.90;;;;;;4127481;28;20042;-61
2023/06/26 04:31:47;;;;;;;3.13;1.70;;;26.00;99.90;;;;;;4129047;28;20471;-61
2023/06/26 04:33:50;;;;;;;5.88;1.90;;;26.20;99.90;;;;;;4127091;28;20568;-62
2023/06/26 04:35:52;;;;;;;2.05;1.80;;;26.20;99.90;;;;;;4130150;28;20034;-62
2023/06/26 04:37:53;;;;;;;2.60;2.40;;;26.70;99.90;;;;;;4126874;28;20047;-61
2023/06/26 04:39:54;;;;;;;3.88;1.73;;;27.20;99.90;;;;;;4128427;28;20430;-62
2023/06/26 04:41:55;;;;;;;4.82;2.22;;;27.60;99.90;;;;;;4127019;28;20077;-61
2023/06/26 04:43:56;;;;;;;5.88;2.15;;;27.80;99.90;;;;;;4127899;28;20042;-63
2023/06/26 04:45:58;;;;;;;3.42;1.98;;;28.00;99.90;;;;;;4127343;28;20089;-62
2023/06/26 04:48:00;;;;;;;4.40;1.83;;;28.30;99.90;;;;;;4125529;28;20077;-65
2023/06/26 04:50:01;;;;;;;4.97;2.28;;;28.50;99.90;;;;;;4126154;28;20928;-61
2023/06/26 04:52:03;;;;;;;2.63;2.00;;;28.90;99.90;;;;;;4126919;28;20039;-63
2023/06/26 04:54:04;;;;;;;8.73;2.30;;;28.80;99.90;;;;;;4127528;28;20125;-60
2023/06/26 04:56:06;;;;;;;3.10;2.15;;;28.80;99.90;;;;;;4126619;28;20484;-61
2023/06/26 04:58:07;;;;;;;5.03;2.53;;;28.90;99.90;;;;;;4127793;28;20034;-61
2023/06/26 05:00:10;;;;;;;3.60;2.13;;;29.10;99.90;;;;;;4126452;28;20120;-60
2023/06/26 05:02:14;;;;;;;8.32;1.67;;;29.40;99.90;;;;;;4127775;28;20413;-61
2023/06/26 05:04:16;;;;;;;5.68;1.90;;;29.60;99.90;;;;;;4126903;28;20034;-62
2023/06/26 05:06:17;;;;;;;4.30;1.67;;;29.90;99.70;;;;;;4130807;28;20084;-60
2023/06/26 05:08:22;;;;;;;6.28;2.03;;;30.00;99.20;;;;;;4129677;28;20038;-61
2023/06/26 05:10:23;;;;;;;4.28;1.77;;;30.30;98.80;;;;;;4130809;28;20034;-59
2023/06/26 05:12:24;;;;;;;3.92;1.50;;;30.40;98.70;;;;;;4129552;28;20129;-61
2023/06/26 05:14:25;;;;;;;2.85;1.60;;;30.40;98.40;;;;;;4130409;28;20446;-60
2023/06/26 05:16:26;;;;;;;4.80;1.60;;;30.80;98.00;;;;;;4129853;28;20030;-60
2023/06/26 05:18:27;;;;;;;7.30;1.60;;;31.10;97.60;;;;;;4130106;28;20043;-60
2023/06/26 05:20:28;;;;;;;1.90;1.60;;;31.30;97.30;;;;;;4130096;28;20030;-60
2023/06/26 05:22:30;;;;;;;4.20;2.08;;;31.20;96.80;;;;;;4129940;28;20034;-60
2023/06/26 05:24:32;;;;;;;1.50;1.10;;;31.30;96.40;;;;;;4130249;28;20494;-61
2023/06/26 05:26:33;;;;;;;6.63;1.67;;;31.50;96.10;;;;;;4129521;28;20046;-60
2023/06/26 05:28:36;;;;;;;2.83;1.50;;;31.50;95.70;;;;;;4130547;28;20042;-60
2023/06/26 05:30:37;;;;;;;3.53;1.67;;;31.80;95.50;;;;;;4129210;28;20426;-61
2023/06/26 05:32:40;;;;;;;1.63;1.30;;;31.80;95.20;;;;;;4130358;28;20054;-61
2023/06/26 05:34:42;;;;;;;1.73;1.63;;;31.60;94.90;;;;;;4129029;28;20069;-60
2023/06/26 05:36:44;;;;;;;4.43;1.40;;;31.70;94.80;;;;;;4130314;28;20116;-60
2023/06/26 05:38:45;;;;;;;3.70;1.95;;;31.70;94.50;;;;;;4128951;28;20126;-59
2023/06/26 05:40:47;;;;;;;7.10;2.08;;;31.50;94.50;;;;;;4130256;28;20096;-61
2023/06/26 05:42:48;;;;;;;3.28;1.55;;;31.30;94.50;;;;;;4128863;28;20042;-60
2023/06/26 05:44:49;;;;;;;1.73;1.42;;;31.40;94.40;;;;;;4130139;28;20097;-60
2023/06/26 05:46:51;;;;;;;2.92;1.60;;;31.60;94.10;;;;;;4129117;28;20073;-59
2023/06/26 05:48:52;;;;;;;3.33;1.92;;;31.70;93.80;;;;;;4129622;28;20549;-60
2023/06/26 05:50:54;;;;;;;3.50;1.60;;;31.20;93.60;;;;;;4129310;28;20411;-61
2023/06/26 05:52:56;;;;;;;5.53;1.58;;;31.10;94.10;;;;;;4129260;28;20061;-61
2023/06/26 05:55:00;;;;;;;5.50;3.17;;;31.20;93.90;;;;;;4129597;28;20027;-61
2023/06/26 05:57:01;;;;;;;1.77;1.40;;;31.10;93.80;;;;;;4128911;28;20034;-60
2023/06/26 05:59:05;;;;;;;4.55;1.92;;;31.20;93.50;;;;;;4129747;28;20093;-60
2023/06/26 06:01:07;;;;;;;4.72;1.55;;;31.00;93.70;;;;;;4128880;28;20093;-61
2023/06/26 06:03:10;;;;;;;2.30;1.75;;;31.10;93.80;;;;;;4129569;28;20043;-60
2023/06/26 06:05:11;;;;;;;3.40;2.17;;;31.20;93.30;;;;;;4128891;28;20134;-60
2023/06/26 06:07:12;;;;;;;2.60;1.60;;;31.20;93.40;;;;;;4129898;28;20030;-60
2023/06/26 06:09:13;;;;;;;2.75;2.03;;;31.30;93.10;;;;;;4128615;28;20054;-61
2023/06/26 06:11:15;;;;;;;1.70;1.60;;;31.10;93.20;;;;;;4129756;28;20037;-59
2023/06/26 06:13:16;;;;;;;3.33;2.08;;;31.20;93.40;;;;;;4128968;28;20039;-61
2023/06/26 06:15:17;;;;;;;4.75;2.28;;;31.30;93.00;;;;;;4130105;28;20080;-60
2023/06/26 06:17:20;;;;;;;2.45;1.83;;;31.10;92.80;;;;;;4128048;28;20026;-62
2023/06/26 06:19:22;;;;;;;3.47;1.48;;;30.80;93.00;;;;;;4129929;28;20089;-61
2023/06/26 06:21:23;;;;;;;4.10;1.83;;;30.50;93.10;;;;;;4128935;28;20077;-61
2023/06/26 06:23:24;;;;;;;4.28;1.50;;;30.40;93.10;;;;;;4129516;28;20154;-61
2023/06/26 06:25:26;;;;;;;2.10;1.55;;;30.70;93.30;;;;;;4128683;28;20026;-60
2023/06/26 06:27:27;;;;;;;2.33;2.05;;;30.90;93.10;;;;;;4129077;28;20113;-60
2023/06/26 06:29:28;;;;;;;2.08;1.88;;;30.70;92.80;;;;;;4129303;28;20054;-62
2023/06/26 06:31:30;;;;;;;2.22;1.50;;;30.20;93.30;;;;;;4128463;28;20030;-61
2023/06/26 06:33:31;;;;;;;2.05;1.15;;;29.10;93.70;;;;;;4129181;28;20047;-60
2023/06/26 06:35:32;;;;;;;5.70;1.73;;;29.40;94.20;;;;;;4128581;28;20375;-74
2023/06/26 06:37:33;;;;;;;1.98;1.75;;;29.20;93.90;;;;;;4129673;28;20466;-61
2023/06/26 06:39:34;;;;;;;2.65;2.38;;;28.60;94.40;;;;;;4128511;28;20138;-60
2023/06/26 06:41:36;;;;;;;6.05;2.00;;;28.80;94.60;;;;;;4129624;28;20077;-60
2023/06/26 06:43:37;;;;;;;3.47;2.20;;;29.40;94.20;;;;;;4128431;28;20030;-60
2023/06/26 06:45:38;;;;;;;4.47;1.52;;;30.00;94.00;;;;;;4127754;28;20054;-61
2023/06/26 06:47:39;;;;;;;2.83;1.80;;;29.60;93.90;;;;;;4128375;28;20430;-60
2023/06/26 06:49:40;;;;;;;3.38;1.50;;;29.90;93.80;;;;;;4129080;28;20093;-64
2023/06/26 06:51:41;;;;;;;3.83;1.52;;;30.30;93.70;;;;;;4128071;28;20042;-64
2023/06/26 06:53:42;;;;;;;3.53;2.08;;;30.40;93.50;;;;;;4128783;28;20101;-60
2023/06/26 06:55:43;;;;;;;1.85;1.13;;;30.40;93.30;;;;;;4128308;28;20134;-61
2023/06/26 06:57:45;;;;;;;4.28;2.00;;;30.30;93.10;;;;;;4128443;28;20042;-61
2023/06/26 06:59:47;;;;;;;4.28;2.05;;;29.10;93.30;;;;;;4128523;28;20101;-61
2023/06/26 07:01:48;;;;;;;3.72;2.10;;;28.80;94.00;;;;;;4128115;28;20141;-69
2023/06/26 07:03:49;;;;;;;4.25;2.88;;;27.40;94.90;;;;;;4128624;28;20097;-60
2023/06/26 07:05:50;;;;;;;7.68;2.58;;;27.40;95.60;;;;;;4127783;28;20102;-61
2023/06/26 07:07:51;;;;;;;6.35;2.10;;;27.40;95.60;;;;;;4129084;28;20034;-63
2023/06/26 07:09:52;;;;;;;7.05;2.10;;;27.70;95.50;;;;;;4128104;28;20089;-61
2023/06/26 07:11:53;;;;;;;5.22;1.33;;;27.30;95.10;;;;;;4129002;28;20046;-61
2023/06/26 07:13:55;;;;;;;2.75;1.90;;;26.90;95.60;;;;;;4127879;28;20081;-64
2023/06/26 07:15:56;;;;;;;8.30;3.13;;;27.10;95.50;;;;;;4128966;28;20530;-60
2023/06/26 07:17:57;;;;;;;14.60;2.92;;;27.50;95.20;;;;;;4127720;28;20486;-60
2023/06/26 07:20:00;;;;;;;2.20;1.42;;;26.80;94.60;;;;;;4128950;28;20027;-61
2023/06/26 07:22:01;;;;;;;4.50;1.77;;;26.50;94.60;;;;;;4127738;28;20936;-61
2023/06/26 07:24:02;;;;;;;6.07;2.10;;;26.50;94.80;;;;;;4128683;28;20038;-60
2023/06/26 07:26:04;;;;;;;2.45;1.67;;;26.60;94.60;;;;;;4128002;28;20038;-61
2023/06/26 07:28:10;;;;;;;2.15;1.65;;;26.90;94.70;;;;;;4128165;28;20060;-62
2023/06/26 07:30:12;;;;;;;2.58;1.50;;;27.20;94.40;;;;;;4128161;28;20026;-60
2023/06/26 07:32:13;;;;;;;2.50;1.60;;;27.40;94.20;;;;;;4127722;28;20113;-60
2023/06/26 07:34:14;;;;;;;3.60;2.10;;;27.60;94.20;;;;;;4128208;28;20034;-61
2023/06/26 07:36:16;;;;;;;3.25;1.65;;;27.80;94.00;;;;;;4127736;28;20054;-67
2023/06/26 07:38:17;;;;;;;2.88;1.88;;;27.80;93.90;;;;;;4128753;28;20382;-63
2023/06/26 07:40:18;;;;;;;3.13;1.85;;;28.00;93.50;;;;;;4127282;28;20463;-59
2023/06/26 07:42:19;;;;;;;3.53;2.10;;;27.30;93.60;;;;;;4128468;28;20046;-62
2023/06/26 07:44:21;;;;;;;2.85;1.67;;;27.10;93.60;;;;;;4127217;28;20089;-63
2023/06/26 07:46:23;;;;;;;3.10;2.00;;;27.30;93.50;;;;;;4128420;28;20057;-60
2023/06/26 07:48:25;;;;;;;2.53;2.17;;;27.00;93.00;;;;;;4127186;28;20042;-60
2023/06/26 07:50:26;;;;;;;2.08;1.60;;;26.80;93.20;;;;;;4128490;28;20034;-60
2023/06/26 07:52:27;;;;;;;3.05;2.10;;;26.70;93.10;;;;;;4125954;28;20038;-61
2023/06/26 07:54:29;;;;;;;2.08;1.85;;;26.80;93.10;;;;;;4128131;28;20050;-61
2023/06/26 07:56:30;;;;;;;2.55;1.83;;;26.70;92.70;;;;;;4127559;28;20058;-60
2023/06/26 07:58:31;;;;;;;4.32;2.00;;;26.50;92.60;;;;;;4128061;28;20042;-63
2023/06/26 08:00:33;;;;;;;3.50;2.15;;;26.30;92.40;;;;;;4127648;28;20469;-61
2023/06/26 08:02:34;;;;;;;2.30;2.03;;;26.20;92.40;;;;;;4127623;28;20034;-60
2023/06/26 08:04:35;;;;;;;3.00;2.10;;;25.80;91.90;;;;;;4127589;28;20089;-60
2023/06/26 08:06:40;;;;;;;6.20;2.85;;;25.90;92.10;;;;;;4127366;28;20026;-60
2023/06/26 08:08:41;;;;;;;6.10;2.47;;;26.40;92.00;;;;;;4128223;28;20093;-60
2023/06/26 08:10:42;;;;;;;2.63;2.40;;;26.70;91.40;;;;;;4127304;28;20026;-63
2023/06/26 08:12:44;;;;;;;5.43;1.85;;;26.40;91.30;;;;;;4128196;28;20030;-61
2023/06/26 08:14:46;;;;;;;6.72;2.53;;;26.40;91.60;;;;;;4127390;28;20053;-58
2023/06/26 08:16:47;;;;;;;5.15;2.60;;;26.60;91.40;;;;;;4128225;28;20097;-61
2023/06/26 08:18:48;;;;;;;5.53;2.08;;;26.80;91.40;;;;;;4127065;28;20026;-59
2023/06/26 08:20:49;;;;;;;8.05;2.40;;;27.10;91.10;;;;;;4128181;28;20034;-60
2023/06/26 08:22:52;;;;;;;2.33;2.00;;;26.90;91.30;;;;;;4126980;28;20038;-60
2023/06/26 08:24:53;;;;;;;2.38;2.17;;;27.10;91.40;;;;;;4128248;28;20457;-60
2023/06/26 08:26:54;;;;;;;2.83;2.10;;;27.20;91.00;;;;;;4127034;28;20537;-60
2023/06/26 08:28:55;;;;;;;9.77;2.90;;;26.90;90.90;;;;;;4127885;28;20034;-61
2023/06/26 08:30:56;;;;;;;3.13;1.98;;;26.90;91.50;;;;;;4127399;28;20085;-60
2023/06/26 08:32:58;;;;;;;3.33;2.45;;;26.80;91.70;;;;;;4127350;28;20174;-60
2023/06/26 08:34:59;;;;;;;2.92;1.70;;;26.40;91.80;;;;;;4127589;28;20039;-59
2023/06/26 08:37:00;;;;;;;3.25;2.50;;;26.00;91.90;;;;;;4127273;28;20486;-62
2023/06/26 08:39:01;;;;;;;4.93;2.00;;;26.20;92.40;;;;;;4127737;28;20109;-60
2023/06/26 08:41:02;;;;;;;2.20;2.00;;;26.60;92.30;;;;;;4130278;28;20119;-60
2023/06/26 08:43:04;;;;;;;6.50;2.15;;;27.20;91.90;;;;;;4131185;28;20101;-59
2023/06/26 08:45:05;;;;;;;2.97;1.92;;;27.60;91.50;;;;;;4130099;28;20479;-60
2023/06/26 08:47:07;;;;;;;3.72;2.25;;;28.00;91.20;;;;;;4130228;28;20572;-60
2023/06/26 08:49:17;;;;;;;2.90;2.15;;;28.30;91.00;;;;;;4129300;28;20166;-60
2023/06/26 08:51:21;;;;;;;2.10;1.80;;;28.40;90.10;;;;;;4131142;28;20034;-60
2023/06/26 08:53:42;;;;;;;2.90;2.05;;;28.00;90.60;;;;;;4129706;28;20038;-59
2023/06/26 08:55:45;;;;;;;4.53;1.88;;;27.40;90.00;;;;;;4130890;28;20065;-59
2023/06/26 08:57:46;;;;;;;4.65;2.38;;;26.60;91.20;;;;;;4129563;28;20034;-60
2023/06/26 08:59:47;;;;;;;4.10;2.20;;;26.60;91.60;;;;;;4130839;28;20157;-61
2023/06/26 09:01:48;;;;;;;2.80;2.20;;;26.70;91.60;;;;;;4128245;28;20042;-60
2023/06/26 09:03:51;;;;;;;2.35;2.15;;;26.90;91.80;;;;;;4130653;28;20027;-60
2023/06/26 09:05:52;;;;;;;32.47;4.70;;;27.20;91.70;;;;;;4129722;28;20467;-60
2023/06/26 09:07:55;;;;;;;38.83;8.52;;;27.00;91.30;;;;;;4130610;28;20030;-61
2023/06/26 09:09:56;;;;;;;3.85;2.15;;;26.90;91.50;;;;;;4129719;28;20050;-61
2023/06/26 09:11:57;;;;;;;5.47;2.55;;;27.10;91.50;;;;;;4130163;28;20089;-60
2023/06/26 09:13:59;;;;;;;2.83;2.00;;;27.00;91.20;;;;;;4130101;28;20100;-61
2023/06/26 09:16:06;;;;;;;9.70;3.08;;;26.90;90.90;;;;;;4129837;28;20035;-66
2023/06/26 09:18:07;;;;;;;7.53;2.30;;;26.80;91.20;;;;;;4128685;28;20085;-60
2023/06/26 09:20:10;;;;;;;3.25;2.05;;;26.40;91.60;;;;;;4129482;28;20026;-61
2023/06/26 09:22:13;;;;;;;3.47;1.90;;;26.20;91.70;;;;;;4130574;28;20077;-59
2023/06/26 09:24:16;;;;;;;5.15;2.45;;;26.10;91.90;;;;;;4129336;28;20026;-60
2023/06/26 09:26:17;;;;;;;5.05;2.28;;;26.00;91.80;;;;;;4130318;28;20089;-60
2023/06/26 09:28:18;;;;;;;2.45;2.00;;;26.20;92.00;;;;;;4129141;28;20116;-60
2023/06/26 09:30:20;;;;;;;12.23;2.22;;;26.30;91.80;;;;;;4130510;28;20026;-61
2023/06/26 09:32:24;;;;;;;5.57;2.17;;;26.30;91.90;;;;;;4129325;28;20093;-59
2023/06/26 09:34:32;;;;;;;3.28;2.17;;;26.30;91.60;;;;;;4130372;28;20411;-61
2023/06/26 09:36:34;;;;;;;2.30;1.98;;;26.20;91.10;;;;;;4129405;28;20478;-61
2023/06/26 09:38:36;;;;;;;6.45;1.98;;;26.20;91.30;;;;;;4130428;28;20034;-62
2023/06/26 09:40:38;;;;;;;4.03;1.98;;;26.40;91.30;;;;;;4129062;28;20030;-63
2023/06/26 09:42:39;;;;;;;7.30;2.03;;;26.50;91.20;;;;;;4129778;28;20100;-60
2023/06/26 09:44:47;;;;;;;4.45;2.20;;;26.50;91.10;;;;;;4128788;28;20467;-60
2023/06/26 09:46:49;;;;;;;12.50;4.00;;;26.70;90.70;;;;;;4130012;28;20034;-63
2023/06/26 09:48:57;;;;;;;7.75;2.45;;;26.50;91.30;;;;;;4128961;28;20046;-60
2023/06/26 09:51:00;;;;;;;4.95;2.83;;;26.20;91.30;;;;;;4128367;28;20426;-66
2023/06/26 09:53:09;;;;;;;10.02;2.83;;;26.10;91.60;;;;;;4129362;28;20034;-60
2023/06/26 09:55:11;;;;;;;5.43;2.03;;;26.00;92.00;;;;;;4129652;28;20085;-60
2023/06/26 09:57:15;;;;;;;13.70;2.63;;;26.10;91.70;;;;;;4129677;28;20076;-59
2023/06/26 09:59:17;;;;;;;3.28;1.65;;;26.20;91.60;;;;;;4129059;28;20533;-61
2023/06/26 10:01:18;;;;;;;8.40;2.42;;;26.20;91.70;;;;;;4129850;28;20064;-60
2023/06/26 10:03:20;;;;;;;6.43;2.35;;;26.30;91.50;;;;;;4128677;28;20155;-60
2023/06/26 10:05:21;;;;;;;4.63;2.00;;;26.30;91.30;;;;;;4130019;28;20034;-62
2023/06/26 10:07:23;;;;;;;5.72;2.28;;;26.50;91.40;;;;;;4128746;28;20101;-62
2023/06/26 10:09:24;;;;;;;7.70;2.85;;;26.40;91.10;;;;;;4129957;28;20112;-60
2023/06/26 10:11:32;;;;;;;3.78;2.00;;;26.00;90.80;;;;;;4127120;28;20042;-59
2023/06/26 10:13:41;;;;;;;11.07;2.45;;;25.60;90.70;;;;;;4129782;28;20080;-60
2023/06/26 10:15:45;;;;;;;30.05;6.15;;;25.40;91.10;;;;;;4128705;28;20054;-60
2023/06/26 10:17:48;;;;;;;12.57;3.10;;;25.30;91.40;;;;;;4129710;28;20130;-59
2023/06/26 10:19:51;;;;;;;4.43;2.10;;;25.30;91.00;;;;;;4128288;28;20042;-60
2023/06/26 10:21:53;;;;;;;3.25;2.20;;;25.40;90.70;;;;;;4129973;28;20030;-60
2023/06/26 10:23:56;;;;;;;3.63;2.08;;;25.70;90.40;;;;;;4128511;28;20030;-60
2023/06/26 10:25:59;;;;;;;8.38;2.15;;;25.90;90.20;;;;;;4129726;28;20038;-60
2023/06/26 10:28:03;;;;;;;6.15;2.35;;;26.10;90.30;;;;;;4128425;28;20023;-61
2023/06/26 10:30:09;;;;;;;5.20;2.35;;;26.30;90.20;;;;;;4126987;28;20470;-69
2023/06/26 10:32:12;;;;;;;4.90;2.35;;;26.50;90.00;;;;;;4128310;28;20042;-60
2023/06/26 10:34:13;;;;;;;4.00;2.45;;;26.70;90.00;;;;;;4129051;28;20097;-61